CCGS Henry Larsen — CGHL — position and weather

sailwx.info

Track history (hours):
 
Tides and Currents Weather Stations Pressure Air Temp Water Temp Dewpoint Dewpoint Depression Visibility Wind Speed Wind Dir Waves Ship Positions

CCGS Henry Larsen (Canada)

Medium Gulf/River Icebreaker

Last reported at 2018-Sep-21 07:00 UTC. Time now 2018-Sep-21 07:38 UTC.
Position N 66°06' W 084°42'.

Length 100.03 m; beam 19.82 m; draft 7.2 m.

Type: SAR. MMSI: 316013000.

Wind from 200 at 4 knots

Barometer 1013.9 mb
Air temperature -1.6 ° C
Dewpoint -3.7 ° C

Date/timePositionNaut miles runAvg speedWind from/ knotsBaromVisibWave heightAir tempDewpointWater temp
2018-Sep-21 07:00N 66°06' W 084°42'1313.0 200 / 41013.9 -1.6-3.7
2018-Sep-21 06:00N 65°54' W 084°30'2814.1 110 / 21013.7 -1.5-3.9
2018-Sep-21 04:00N 65°30' W 083°54'1211.6 150 / 141013.8 -1.3-7.3
2018-Sep-21 03:00N 65°24' W 083°30'1515.0 120 / 141014.1 -1.5-5.5
2018-Sep-21 02:00N 65°24' W 082°54'1313.0 100 / 151014.0 -1.8-7.4
2018-Sep-21 01:00N 65°36' W 082°42'1918.7 110 / 141014.2 -1.8-6.9
2018-Sep-21 00:00N 65°54' W 082°30'1313.0 110 / 81014.1 -1.7-7.1
2018-Sep-20 23:00N 66°06' W 082°18'1212.2 140 / 61013.8 -1.3-7.4
2018-Sep-20 22:00N 66°18' W 082°12'1414.0 170 / 81013.4 -0.9-7.3
2018-Sep-20 21:00N 66°30' W 081°54'1312.9 180 / 71013.0 -0.8-6.0
2018-Sep-20 20:00N 66°42' W 081°42'1211.9 220 / 121012.5 -1.3-6.5
2018-Sep-20 19:00N 66°42' W 081°12'1413.9 210 / 131012.3 -1.8-5.1
2018-Sep-20 18:00N 66°54' W 080°54'1212.0 220 / 81011.6 -2.2-5.1
2018-Sep-20 17:00N 67°06' W 080°54'2412.2 270 / 81011.0 -3.0-5.0
2018-Sep-20 15:00N 67°30' W 080°42'1818.1 280 / 81010.1 -2.2-2.3
2018-Sep-20 14:00N 67°48' W 080°36'6 6.4 270 / 61010.2 -1.5-1.6
2018-Sep-20 13:00N 67°54' W 080°30'1212.0 070 / 281009.2 -0.3-0.4
2018-Sep-20 12:00N 68°06' W 080°30'1212.0 060 / 301009.6 -0.5-0.6
2018-Sep-20 11:00N 68°18' W 080°30'1212.2 060 / 301010.0 -0.6-0.7
2018-Sep-20 10:00N 68°30' W 080°24'1212.0 070 / 261010.6 -0.4-0.5
2018-Sep-20 09:00N 68°42' W 080°24'6 6.0 060 / 281011.0 -0.4-0.6
2018-Sep-20 08:00N 68°48' W 080°24'6 6.4 070 / 271011.5 -0.3-0.5
2018-Sep-20 07:00N 68°54' W 080°30'6 6.0 080 / 251011.8 -0.0-0.2
2018-Sep-20 06:00N 69°00' W 080°30'1212.0 070 / 271011.9 0.1-0.0
2018-Sep-20 05:00N 69°12' W 080°30'16 8.0 090 / 261012.6 0.2 0.1
2018-Sep-20 03:00N 69°24' W 081°00'1514.7 090 / 171012.6 -0.3-0.5
2018-Sep-20 02:00N 69°36' W 081°24'1212.0 090 / 151012.1 -0.1-0.2
2018-Sep-20 01:00N 69°42' W 081°54'1212.5 340 / 71012.1 -1.1-1.2
2018-Sep-20 00:00N 69°42' W 082°30'1010.2 290 / 121012.0 -2.3-2.5
2018-Sep-19 23:00N 69°48' W 082°54'1212.4 280 / 81011.7 -2.1-2.3
2018-Sep-19 22:00N 69°48' W 083°30'1212.4 270 / 101011.2 -2.0-2.1
2018-Sep-19 21:00N 69°48' W 084°06'7 7.3 300 / 71010.5 -1.5-1.7
2018-Sep-19 20:00N 69°54' W 084°18'0 0.0 260 / 81010.0 -1.2-1.4
2018-Sep-19 19:00N 69°54' W 084°18'2 2.1 090 / 131008.8 0.6 0.4
2018-Sep-19 18:00N 69°54' W 084°24'4 4.1 060 / 161008.3 0.4 0.3
2018-Sep-19 17:00N 69°54' W 084°36'6 6.2 060 / 221007.7 0.8 0.6
2018-Sep-19 16:00N 69°54' W 084°54'4 4.1 080 / 211007.1 0.7 0.5
2018-Sep-19 15:00N 69°54' W 085°06'4 4.1 080 / 181007.2 1.4 0.4
2018-Sep-19 14:00N 69°54' W 085°18'4 4.1 060 / 151007.6 0.7 0.5
2018-Sep-19 13:00N 69°54' W 085°30'4 4.1 060 / 181007.1 0.9 0.6
2018-Sep-19 12:00N 69°54' W 085°42'4 4.1 070 / 181006.4 0.9-0.0
2018-Sep-19 11:00N 69°54' W 085°54'7 7.3 070 / 161006.2 0.8-0.4
2018-Sep-19 10:00N 69°48' W 086°06'6 3.2 080 / 121006.1 0.6-0.3
2018-Sep-19 08:00N 69°42' W 086°12'2 2.1 100 / 101006.2 1.1 0.2
2018-Sep-19 07:00N 69°42' W 086°06'0 0.0 100 / 81006.9 0.7 0.5
2018-Sep-19 06:00N 69°42' W 086°06'0 0.0 100 / 121007.0 0.6 0.5
2018-Sep-19 05:00N 69°42' W 086°06'6 6.4 130 / 101006.6 1.2 1.0
2018-Sep-19 04:00N 69°36' W 086°12'1413.9 090 / 271005.8 1.3 1.1
2018-Sep-19 03:00N 69°42' W 086°48'1212.5 070 / 211005.2 0.2-0.0
2018-Sep-19 02:00N 69°42' W 087°24'1514.6 070 / 211004.4 -0.1-0.2
2018-Sep-19 01:00N 69°42' W 088°06'1514.6 080 / 281003.8 0.1-0.0
2018-Sep-19 00:00N 69°54' W 088°30'1514.5 080 / 291003.9 -0.0-0.1
2018-Sep-18 23:00N 70°06' W 088°54'4715.8 080 / 291004.0 -0.0-0.2
2018-Sep-18 20:00N 70°48' W 090°00'7 7.2 110 / 31004.8 -1.3-1.5
2018-Sep-18 19:00N 70°54' W 090°12'1818.1 090 / 351002.3 0.4 0.3
2018-Sep-18 18:00N 71°12' W 090°18'1212.2 080 / 361001.6 0.3 0.2
2018-Sep-18 17:00N 71°24' W 090°24'1212.2 080 / 371001.4 -0.2-0.3
2018-Sep-18 16:00N 71°36' W 090°30'1212.0 060 / 371001.9 -0.5-0.6
2018-Sep-18 15:00N 71°48' W 090°30'1818.0 060 / 241005.2 -1.1-1.2
2018-Sep-18 14:00N 72°06' W 090°30'1212.0 090 / 271005.1 -0.8-1.2
2018-Sep-18 13:00N 72°18' W 090°30'1212.0 090 / 301004.7 -0.7-0.9
2018-Sep-18 12:00N 72°30' W 090°30'1313.2 080 / 291004.3 -0.7-0.9
2018-Sep-18 11:00N 72°42' W 090°12'1313.1 080 / 291004.5 -0.7-0.9
2018-Sep-18 10:00N 72°54' W 089°54'1212.1 070 / 291004.5 -0.4-0.6
2018-Sep-18 09:00N 73°06' W 089°48'8 8.0 080 / 311004.2 -0.5-0.7
2018-Sep-18 08:00N 73°12' W 089°30'1212.5 080 / 281005.2 -0.3-1.2
2018-Sep-18 07:00N 73°24' W 089°18'1413.8 060 / 341006.1 -1.1-2.3
2018-Sep-18 06:00N 73°36' W 088°54'1211.8 060 / 281007.2 -1.2-3.5
2018-Sep-18 05:00N 73°42' W 088°18'1313.2 080 / 211008.4 -1.5-4.2
2018-Sep-18 04:00N 73°48' W 087°36'1313.1 090 / 211008.8 -1.6-3.9
2018-Sep-18 03:00N 73°54' W 086°54'2311.6 110 / 141009.2 -0.8-2.5
2018-Sep-18 01:00N 74°06' W 085°42'3812.6 080 / 251009.0 -0.4-2.5
2018-Sep-17 22:00N 74°18' W 083°30'1111.4 080 / 241009.7 -1.7-2.4
2018-Sep-17 21:00N 74°24' W 082°54'1010.0 070 / 241010.5 -1.8-2.0
2018-Sep-17 20:00N 74°30' W 082°24'0 0.0 090 / 171010.2 -0.8-4.1
2018-Sep-17 19:00N 74°30' W 082°24'0 0.0 080 / 121010.2 -1.1-4.1
2018-Sep-17 18:00N 74°30' W 082°24'0 0.0 080 / 91010.2 -1.8-2.6
2018-Sep-17 17:00N 74°30' W 082°24'0 0.0 120 / 101009.9 -2.2-2.3
2018-Sep-17 16:00N 74°30' W 082°24'0 0.0 120 / 141009.5 -2.3-2.5
2018-Sep-17 15:00N 74°30' W 082°24'0 0.0 110 / 201009.2 -1.6-4.1
2018-Sep-17 14:00N 74°30' W 082°24'0 0.0 110 / 221008.9 -1.8-3.0
2018-Sep-17 13:00N 74°30' W 082°24'2 1.6 110 / 201008.8 -1.6-3.3
2018-Sep-17 12:00N 74°30' W 082°30'1312.9 130 / 141008.9 -1.8-2.9
2018-Sep-17 11:00N 74°18' W 082°12'2 1.6 110 / 181008.4 -1.7-2.6
2018-Sep-17 10:00N 74°18' W 082°18'2 1.6 110 / 191008.2 -1.8-3.0
2018-Sep-17 09:00N 74°18' W 082°24'2 1.6 110 / 191007.8 -1.9-2.8
2018-Sep-17 08:00N 74°18' W 082°30'2 1.6 110 / 111008.0 -2.0-2.6
2018-Sep-17 07:00N 74°18' W 082°36'6 6.2 130 / 131007.7 -2.2-2.4
2018-Sep-17 06:00N 74°12' W 082°42'0 0.0 140 / 161007.3 -1.6-3.3
2018-Sep-17 05:00N 74°12' W 082°42'2 1.6 230 / 11007.5 -2.2-2.4
2018-Sep-17 04:00N 74°12' W 082°48'0 0.0 130 / 41007.3 -2.2-2.4
2018-Sep-17 03:00N 74°12' W 082°48'1212.1 100 / 151007.0 -2.4-2.6
2018-Sep-17 02:00N 74°24' W 082°54'1212.0 140 / 131007.1 -2.3-2.5
2018-Sep-17 01:00N 74°12' W 082°54'1818.1 200 / 171007.4 -2.5-2.8
2018-Sep-17 00:00N 73°54' W 082°48'2 1.7 210 / 161007.5 -2.4-2.7
2018-Sep-16 23:00N 73°54' W 082°54'1010.0 230 / 51007.3 -2.1-2.3
2018-Sep-16 22:00N 73°54' W 083°30'1010.0 230 / 81006.7 -2.0-2.6
2018-Sep-16 21:00N 73°54' W 084°06'1010.0 180 / 101006.2 -2.2-2.4
2018-Sep-16 20:00N 73°54' W 084°42'2311.6 130 / 31007.0 -3.1-3.3
2018-Sep-16 18:00N 74°06' W 085°54'10 9.9 160 / 61006.6 -2.9-3.5
2018-Sep-16 17:00N 74°06' W 086°30'1010.2 240 / 71006.7 -2.9-3.1
2018-Sep-16 16:00N 74°12' W 087°00'1211.5 190 / 71006.6 -2.9-3.1
2018-Sep-16 15:00N 74°06' W 087°36'1010.2 200 / 131007.0 -2.8-3.2
2018-Sep-16 14:00N 74°00' W 088°06'1010.2 220 / 101007.3 -2.1-2.6
2018-Sep-16 13:00N 73°54' W 088°36'8 7.8 210 / 151007.6 -3.7-3.9
2018-Sep-16 12:00N 73°48' W 088°54'9 9.0 200 / 151008.2 -3.6-3.9
2018-Sep-16 11:00N 73°42' W 089°18'1212.5 200 / 141008.7 -3.9-4.9
2018-Sep-16 10:00N 73°30' W 089°30'0 0.0 180 / 171009.1 -3.5-4.6
2018-Sep-16 09:00N 73°30' W 089°30'0 0.0 230 / 81009.6 -3.3-4.3
2018-Sep-16 08:00N 73°30' W 089°30'0 0.0 240 / 31009.9 -3.4-4.8
2018-Sep-16 07:00N 73°30' W 089°30'0 0.0 220 / 11010.3 -3.3-4.8
2018-Sep-16 06:00N 73°30' W 089°30'2 1.7 250 / 11010.8 -3.4-4.2
2018-Sep-16 05:00N 73°30' W 089°36'0 0.0 240 / 61011.1 -3.4-4.1
2018-Sep-16 04:00N 73°30' W 089°36'0 0.0 260 / 11011.4 -3.1-4.4
2018-Sep-16 03:00N 73°30' W 089°36'0 0.0 1011.8 -2.8-3.0
2018-Sep-16 02:00N 73°30' W 089°36'0 0.0 1012.2 -2.4-2.6
2018-Sep-16 01:00N 73°30' W 089°36'0 0.0 240 / 11012.9 -2.3-2.9
2018-Sep-15 23:00N 73°30' W 089°36'0 0.0 260 / 81013.4 -2.4-3.1
2018-Sep-15 22:00N 73°30' W 089°36'6 6.2 280 / 11013.6 -2.0-3.2
2018-Sep-15 21:00N 73°24' W 089°30'1212.0 210 / 211014.1 -2.6-2.8
2018-Sep-15 20:00N 73°12' W 089°30'1918.7 230 / 191015.1 -2.4-3.1
2018-Sep-15 19:00N 72°54' W 089°48'8 8.0 240 / 191015.5 -2.2-2.7
2018-Sep-15 18:00N 72°48' W 090°06'1212.1 240 / 211015.8 -1.5-2.1
2018-Sep-15 17:00N 72°36' W 090°12'1818.1 230 / 161016.3 -1.4-3.7
2018-Sep-15 16:00N 72°18' W 090°18'1312.5 250 / 81016.5 -0.7-6.6
2018-Sep-15 15:00N 72°06' W 090°30'1212.1 270 / 81016.7 -0.8-6.8
2018-Sep-15 14:00N 71°54' W 090°36'1212.1 270 / 101016.6 -0.6-6.3
2018-Sep-15 13:00N 71°42' W 090°42'2412.2 280 / 81016.5 -0.4-4.8
2018-Sep-15 11:00N 71°18' W 090°54'1212.0 300 / 51016.0 -0.2-4.1
2018-Sep-15 10:00N 71°06' W 090°54'1818.0 280 / 21015.8 -0.6-3.1
2018-Sep-15 09:00N 70°48' W 090°54'1212.2 300 / 51015.4 -1.1-1.3
2018-Sep-15 08:00N 70°36' W 091°00'1212.0 260 / 61015.3 -1.1-1.3
2018-Sep-15 07:00N 70°24' W 091°00'1212.0 260 / 81015.1 -0.2-3.9
2018-Sep-15 06:00N 70°12' W 091°00'1818.1 230 / 81014.8 -0.5-2.7
2018-Sep-15 05:00N 69°54' W 090°54'9 8.6 160 / 81014.6 -0.7-2.2
2018-Sep-15 04:00N 69°48' W 090°36'1010.2 180 / 111014.5 -0.9-2.2
2018-Sep-15 03:00N 69°42' W 090°12'1413.5 170 / 171014.3 -0.8-1.7
2018-Sep-15 02:00N 69°30' W 089°54'1312.7 200 / 131014.4 -1.2-1.4
2018-Sep-15 01:00N 69°18' W 090°06'1413.6 280 / 71014.0 -0.5-1.9
2018-Sep-15 00:00N 69°06' W 090°24'1212.2 200 / 131013.9 -0.3-2.4
2018-Sep-14 23:00N 68°54' W 090°18'1312.8 190 / 151013.8 -0.2-2.4
2018-Sep-14 22:00N 68°42' W 090°06'7 7.4 200 / 161013.7 -0.2-2.7
2018-Sep-14 21:00N 68°36' W 089°54'6 6.0 170 / 111013.8 1.2-3.8
2018-Sep-14 20:00N 68°30' W 089°54'0 0.0 160 / 111013.9 0.9-3.4
2018-Sep-14 19:00N 68°30' W 089°54'0 0.0 170 / 141013.7 0.8-3.4
2018-Sep-14 18:00N 68°30' W 089°54'0 0.0 160 / 141013.5 0.9-3.4
2018-Sep-14 16:00N 68°30' W 089°54'0 0.0 160 / 171013.0 0.5-2.5
2018-Sep-14 15:00N 68°30' W 089°54'0 0.0 150 / 151013.1 -0.7-2.0
2018-Sep-14 14:00N 68°30' W 089°54'0 0.0 160 / 171012.8 -1.4-1.6
2018-Sep-14 13:00N 68°30' W 089°54'0 0.0 170 / 181012.6 -1.0-2.3
2018-Sep-14 12:00N 68°30' W 089°54'1312.8 160 / 151012.4 -0.7-2.2
2018-Sep-14 11:00N 68°42' W 090°06'6 6.4 140 / 191011.7 -0.6-1.9
2018-Sep-14 10:00N 68°48' W 090°12'1212.2 150 / 211011.5 -1.0-2.7
2018-Sep-14 09:00N 68°36' W 090°06'6 6.0 160 / 201011.6 -0.7-2.7
2018-Sep-14 08:00N 68°42' W 090°06'0 0.0 170 / 221011.5 -0.6-1.8
2018-Sep-14 07:00N 68°42' W 090°06'0 0.0 170 / 211011.5 -1.0-1.9
2018-Sep-14 04:00N 68°42' W 090°06'0 0.0 150 / 201010.8 -1.0-1.5
2018-Sep-14 03:00N 68°42' W 090°06'0 0.0 180 / 201010.6 -1.0-1.6
2018-Sep-14 02:00N 68°42' W 090°06'6 6.4 180 / 231010.4 -1.0-2.1
2018-Sep-14 01:00N 68°48' W 090°12'6 6.4 160 / 211009.6 -1.1-2.0
2018-Sep-14 00:00N 68°42' W 090°06'0 0.0 170 / 231009.6 -0.9-2.0
2018-Sep-13 22:00N 68°42' W 090°06'0 0.0 200 / 291008.9 0.3-0.9
2018-Sep-13 21:00N 68°42' W 090°06'6 6.4 200 / 291008.2 0.2-1.1
2018-Sep-13 20:00N 68°48' W 090°12'6 6.4 190 / 211007.2 0.3-1.3
2018-Sep-13 19:00N 68°54' W 090°18'1818.1 170 / 241005.5 0.7-0.4
2018-Sep-13 18:00N 69°12' W 090°24'9 8.8 150 / 161005.5 0.5-1.1
2018-Sep-13 17:00N 69°18' W 090°06'1212.2 140 / 211004.7 0.7-0.2
2018-Sep-13 16:00N 69°30' W 090°00'1312.7 110 / 231004.1 0.6 0.2
2018-Sep-13 15:00N 69°42' W 090°12'1010.2 120 / 151003.4 0.6 0.2
2018-Sep-13 14:00N 69°48' W 090°36'9 8.6 130 / 151002.6 0.6-0.3
2018-Sep-13 13:00N 69°54' W 090°54'1818.1 100 / 181002.2 -0.3-0.5
2018-Sep-13 12:00N 70°12' W 091°00'1212.2 100 / 191001.9 -0.4-0.8
2018-Sep-13 11:00N 70°24' W 090°54'3015.0 100 / 171001.4 -0.4-0.6
2018-Sep-13 09:00N 70°54' W 090°54'7 7.2 050 / 231001.0 -0.6-0.9
2018-Sep-13 08:00N 71°00' W 091°06'1414.3 040 / 211001.0 -0.9-1.0
2018-Sep-13 07:00N 71°12' W 091°30'10 9.8 030 / 201001.2 -1.0-1.2
2018-Sep-13 06:00N 71°18' W 091°54'1515.3 040 / 161001.2 -1.2-1.4
2018-Sep-13 05:00N 71°30' W 092°24'1111.2 040 / 151001.3 -1.2-1.4
2018-Sep-13 04:00N 71°36' W 092°54'1515.3 060 / 91001.3 -1.0-1.2
2018-Sep-13 03:00N 71°48' W 093°24'1111.1 020 / 161001.3 -0.6-0.8
2018-Sep-13 02:00N 71°54' W 093°54'1312.7 340 / 181001.4 -0.8-0.9
2018-Sep-13 01:00N 72°00' W 094°30'10 9.6 010 / 131001.6 -0.3-0.5
2018-Sep-13 00:00N 71°54' W 094°54'9 9.3 010 / 121001.5 -0.6-0.8
2018-Sep-12 23:00N 71°54' W 095°24'2 1.9 050 / 91001.9 -0.4-0.7
2018-Sep-12 22:00N 71°54' W 095°18'0 0.0 100 / 11001.7 -0.2-0.4
2018-Sep-12 21:00N 71°54' W 095°18'7 7.5 080 / 81001.4 1.5 1.3
2018-Sep-12 20:00N 71°54' W 094°54'7 7.1 060 / 101001.3 -0.0-0.1
2018-Sep-12 19:00N 72°00' W 094°42'8 8.2 070 / 131000.9 0.2-0.0
2018-Sep-12 18:00N 71°54' W 094°24'6 5.6 020 / 101000.4 0.1-0.0
2018-Sep-12 17:00N 71°54' W 094°06'4 3.7 090 / 81000.6 -0.0-0.2
2018-Sep-12 16:00N 71°54' W 093°54'10 9.6 010 / 151001.1 -0.2-0.3
2018-Sep-12 15:00N 72°00' W 093°30'1111.0 020 / 171001.5 0.1-0.1
2018-Sep-12 14:00N 72°06' W 093°00'9 9.5 030 / 151002.2 0.5 0.3
2018-Sep-12 13:00N 72°12' W 092°36'1110.9 020 / 181002.8 0.2 0.1
2018-Sep-12 12:00N 72°18' W 092°06'9 9.1 020 / 171003.4 0.1-0.1
2018-Sep-12 11:00N 72°18' W 091°36'1110.9 040 / 191004.2 1.0 0.1
2018-Sep-12 10:00N 72°24' W 091°06'1110.9 040 / 161004.8 1.1-1.0
2018-Sep-12 09:00N 72°30' W 090°36'1110.8 040 / 171005.4 1.1-1.6
2018-Sep-12 08:00N 72°36' W 090°06'7 7.0 030 / 151005.8 0.3-1.1
2018-Sep-12 07:00N 72°42' W 089°54'1312.5 030 / 171006.6 0.2-1.4
2018-Sep-12 06:00N 72°54' W 089°42'7 7.0 040 / 201007.1 0.5-2.1
2018-Sep-12 05:00N 73°00' W 089°30'1212.5 040 / 201007.6 0.5-2.8
2018-Sep-12 04:00N 73°12' W 089°18'2010.0 040 / 161008.0 0.6-2.8
2018-Sep-12 02:00N 73°30' W 088°48'1514.7 090 / 101009.0 0.2-2.9
2018-Sep-12 01:00N 73°42' W 088°18'1010.3 070 / 141009.1 -0.5-2.1
2018-Sep-12 00:00N 73°48' W 087°48'1211.7 090 / 101009.1 0.7-1.0
2018-Sep-11 23:00N 73°54' W 087°12'1010.0 080 / 141009.0 0.1-0.1
2018-Sep-11 22:00N 73°54' W 086°36'1313.1 060 / 91009.1 -0.6-0.7
2018-Sep-11 21:00N 74°00' W 085°54'1211.6 070 / 191008.9 -0.5-0.6
2018-Sep-11 20:00N 74°06' W 085°18'1211.5 090 / 161008.7 -0.5-0.7
2018-Sep-11 19:00N 74°06' W 084°36'1312.9 080 / 151008.5 -0.2-0.3
2018-Sep-11 18:00N 74°12' W 083°54'1313.1 090 / 151008.3 0.3 0.1
2018-Sep-11 17:00N 74°12' W 083°06'8 8.2 050 / 161007.1 0.4 0.1
2018-Sep-11 16:00N 74°12' W 083°36'1111.4 030 / 201007.2 -0.0-0.2
2018-Sep-11 15:00N 74°12' W 084°18'1111.5 030 / 221007.4 0.6 0.1
2018-Sep-11 14:00N 74°18' W 084°54'1514.6 340 / 121007.8 -0.2-0.4
2018-Sep-11 13:00N 74°18' W 085°48'1111.4 340 / 101007.7 -0.4-0.6
2018-Sep-11 12:00N 74°18' W 086°30'1313.0 020 / 141007.4 -0.4-0.6
2018-Sep-11 11:00N 74°18' W 087°18'1111.4 030 / 201006.8 -0.1-0.2
2018-Sep-11 10:00N 74°24' W 087°54'1111.3 020 / 231006.3 0.2 0.1
2018-Sep-11 09:00N 74°24' W 088°36'1312.8 020 / 211006.1 -0.6-0.7
2018-Sep-11 08:00N 74°30' W 089°18'10 9.6 010 / 181006.1 -0.7-0.8
2018-Sep-11 07:00N 74°30' W 089°54'   030 / 81006.1 -1.2-1.4
Track history (hours):
 
Tides and Currents Weather Stations Pressure Air Temp Water Temp Dewpoint Dewpoint Depression Visibility Wind Speed Wind Dir Waves Ship Positions

CCGS Henry Larsen (Canada)

Medium Gulf/River Icebreaker

Last reported at 2018-Sep-21 07:00 UTC. Time now 2018-Sep-21 07:38 UTC.
Position N 66°06' W 084°42'.

Length 100.03 m; beam 19.82 m; draft 7.2 m.

Type: SAR. MMSI: 316013000.

Wind from 200 at 4 knots

Barometer 1013.9 mb
Air temperature -1.6 ° C
Dewpoint -3.7 ° C

Date/timePositionNaut miles runAvg speedWind from/ knotsBaromVisibWave heightAir tempDewpointWater temp
2018-Sep-21 07:00N 66°06' W 084°42'1313.0 200 / 41013.9 -1.6-3.7
2018-Sep-21 06:00N 65°54' W 084°30'2814.1 110 / 21013.7 -1.5-3.9
2018-Sep-21 04:00N 65°30' W 083°54'1211.6 150 / 141013.8 -1.3-7.3
2018-Sep-21 03:00N 65°24' W 083°30'1515.0 120 / 141014.1 -1.5-5.5
2018-Sep-21 02:00N 65°24' W 082°54'1313.0 100 / 151014.0 -1.8-7.4
2018-Sep-21 01:00N 65°36' W 082°42'1918.7 110 / 141014.2 -1.8-6.9
2018-Sep-21 00:00N 65°54' W 082°30'1313.0 110 / 81014.1 -1.7-7.1
2018-Sep-20 23:00N 66°06' W 082°18'1212.2 140 / 61013.8 -1.3-7.4
2018-Sep-20 22:00N 66°18' W 082°12'1414.0 170 / 81013.4 -0.9-7.3
2018-Sep-20 21:00N 66°30' W 081°54'1312.9 180 / 71013.0 -0.8-6.0
2018-Sep-20 20:00N 66°42' W 081°42'1211.9 220 / 121012.5 -1.3-6.5
2018-Sep-20 19:00N 66°42' W 081°12'1413.9 210 / 131012.3 -1.8-5.1
2018-Sep-20 18:00N 66°54' W 080°54'1212.0 220 / 81011.6 -2.2-5.1
2018-Sep-20 17:00N 67°06' W 080°54'2412.2 270 / 81011.0 -3.0-5.0
2018-Sep-20 15:00N 67°30' W 080°42'1818.1 280 / 81010.1 -2.2-2.3
2018-Sep-20 14:00N 67°48' W 080°36'6 6.4 270 / 61010.2 -1.5-1.6
2018-Sep-20 13:00N 67°54' W 080°30'1212.0 070 / 281009.2 -0.3-0.4
2018-Sep-20 12:00N 68°06' W 080°30'1212.0 060 / 301009.6 -0.5-0.6
2018-Sep-20 11:00N 68°18' W 080°30'1212.2 060 / 301010.0 -0.6-0.7
2018-Sep-20 10:00N 68°30' W 080°24'1212.0 070 / 261010.6 -0.4-0.5
2018-Sep-20 09:00N 68°42' W 080°24'6 6.0 060 / 281011.0 -0.4-0.6
2018-Sep-20 08:00N 68°48' W 080°24'6 6.4 070 / 271011.5 -0.3-0.5
2018-Sep-20 07:00N 68°54' W 080°30'6 6.0 080 / 251011.8 -0.0-0.2
2018-Sep-20 06:00N 69°00' W 080°30'1212.0 070 / 271011.9 0.1-0.0
2018-Sep-20 05:00N 69°12' W 080°30'16 8.0 090 / 261012.6 0.2 0.1
2018-Sep-20 03:00N 69°24' W 081°00'1514.7 090 / 171012.6 -0.3-0.5
2018-Sep-20 02:00N 69°36' W 081°24'1212.0 090 / 151012.1 -0.1-0.2
2018-Sep-20 01:00N 69°42' W 081°54'1212.5 340 / 71012.1 -1.1-1.2
2018-Sep-20 00:00N 69°42' W 082°30'1010.2 290 / 121012.0 -2.3-2.5
2018-Sep-19 23:00N 69°48' W 082°54'1212.4 280 / 81011.7 -2.1-2.3
2018-Sep-19 22:00N 69°48' W 083°30'1212.4 270 / 101011.2 -2.0-2.1
2018-Sep-19 21:00N 69°48' W 084°06'7 7.3 300 / 71010.5 -1.5-1.7
2018-Sep-19 20:00N 69°54' W 084°18'0 0.0 260 / 81010.0 -1.2-1.4
2018-Sep-19 19:00N 69°54' W 084°18'2 2.1 090 / 131008.8 0.6 0.4
2018-Sep-19 18:00N 69°54' W 084°24'4 4.1 060 / 161008.3 0.4 0.3
2018-Sep-19 17:00N 69°54' W 084°36'6 6.2 060 / 221007.7 0.8 0.6
2018-Sep-19 16:00N 69°54' W 084°54'4 4.1 080 / 211007.1 0.7 0.5
2018-Sep-19 15:00N 69°54' W 085°06'4 4.1 080 / 181007.2 1.4 0.4
2018-Sep-19 14:00N 69°54' W 085°18'4 4.1 060 / 151007.6 0.7 0.5
2018-Sep-19 13:00N 69°54' W 085°30'4 4.1 060 / 181007.1 0.9 0.6
2018-Sep-19 12:00N 69°54' W 085°42'4 4.1 070 / 181006.4 0.9-0.0
2018-Sep-19 11:00N 69°54' W 085°54'7 7.3 070 / 161006.2 0.8-0.4
2018-Sep-19 10:00N 69°48' W 086°06'6 3.2 080 / 121006.1 0.6-0.3
2018-Sep-19 08:00N 69°42' W 086°12'2 2.1 100 / 101006.2 1.1 0.2
2018-Sep-19 07:00N 69°42' W 086°06'0 0.0 100 / 81006.9 0.7 0.5
2018-Sep-19 06:00N 69°42' W 086°06'0 0.0 100 / 121007.0 0.6 0.5
2018-Sep-19 05:00N 69°42' W 086°06'6 6.4 130 / 101006.6 1.2 1.0
2018-Sep-19 04:00N 69°36' W 086°12'1413.9 090 / 271005.8 1.3 1.1
2018-Sep-19 03:00N 69°42' W 086°48'1212.5 070 / 211005.2 0.2-0.0
2018-Sep-19 02:00N 69°42' W 087°24'1514.6 070 / 211004.4 -0.1-0.2
2018-Sep-19 01:00N 69°42' W 088°06'1514.6 080 / 281003.8 0.1-0.0
2018-Sep-19 00:00N 69°54' W 088°30'1514.5 080 / 291003.9 -0.0-0.1
2018-Sep-18 23:00N 70°06' W 088°54'4715.8 080 / 291004.0 -0.0-0.2
2018-Sep-18 20:00N 70°48' W 090°00'7 7.2 110 / 31004.8 -1.3-1.5
2018-Sep-18 19:00N 70°54' W 090°12'1818.1 090 / 351002.3 0.4 0.3
2018-Sep-18 18:00N 71°12' W 090°18'1212.2 080 / 361001.6 0.3 0.2
2018-Sep-18 17:00N 71°24' W 090°24'1212.2 080 / 371001.4 -0.2-0.3
2018-Sep-18 16:00N 71°36' W 090°30'1212.0 060 / 371001.9 -0.5-0.6
2018-Sep-18 15:00N 71°48' W 090°30'1818.0 060 / 241005.2 -1.1-1.2
2018-Sep-18 14:00N 72°06' W 090°30'1212.0 090 / 271005.1 -0.8-1.2
2018-Sep-18 13:00N 72°18' W 090°30'1212.0 090 / 301004.7 -0.7-0.9
2018-Sep-18 12:00N 72°30' W 090°30'1313.2 080 / 291004.3 -0.7-0.9
2018-Sep-18 11:00N 72°42' W 090°12'1313.1 080 / 291004.5 -0.7-0.9
2018-Sep-18 10:00N 72°54' W 089°54'1212.1 070 / 291004.5 -0.4-0.6
2018-Sep-18 09:00N 73°06' W 089°48'8 8.0 080 / 311004.2 -0.5-0.7
2018-Sep-18 08:00N 73°12' W 089°30'1212.5 080 / 281005.2 -0.3-1.2
2018-Sep-18 07:00N 73°24' W 089°18'1413.8 060 / 341006.1 -1.1-2.3
2018-Sep-18 06:00N 73°36' W 088°54'1211.8 060 / 281007.2 -1.2-3.5
2018-Sep-18 05:00N 73°42' W 088°18'1313.2 080 / 211008.4 -1.5-4.2
2018-Sep-18 04:00N 73°48' W 087°36'1313.1 090 / 211008.8 -1.6-3.9
2018-Sep-18 03:00N 73°54' W 086°54'2311.6 110 / 141009.2 -0.8-2.5
2018-Sep-18 01:00N 74°06' W 085°42'3812.6 080 / 251009.0 -0.4-2.5
2018-Sep-17 22:00N 74°18' W 083°30'1111.4 080 / 241009.7 -1.7-2.4
2018-Sep-17 21:00N 74°24' W 082°54'1010.0 070 / 241010.5 -1.8-2.0
2018-Sep-17 20:00N 74°30' W 082°24'0 0.0 090 / 171010.2 -0.8-4.1
2018-Sep-17 19:00N 74°30' W 082°24'0 0.0 080 / 121010.2 -1.1-4.1
2018-Sep-17 18:00N 74°30' W 082°24'0 0.0 080 / 91010.2 -1.8-2.6
2018-Sep-17 17:00N 74°30' W 082°24'0 0.0 120 / 101009.9 -2.2-2.3
2018-Sep-17 16:00N 74°30' W 082°24'0 0.0 120 / 141009.5 -2.3-2.5
2018-Sep-17 15:00N 74°30' W 082°24'0 0.0 110 / 201009.2 -1.6-4.1
2018-Sep-17 14:00N 74°30' W 082°24'0 0.0 110 / 221008.9 -1.8-3.0
2018-Sep-17 13:00N 74°30' W 082°24'2 1.6 110 / 201008.8 -1.6-3.3
2018-Sep-17 12:00N 74°30' W 082°30'1312.9 130 / 141008.9 -1.8-2.9
2018-Sep-17 11:00N 74°18' W 082°12'2 1.6 110 / 181008.4 -1.7-2.6
2018-Sep-17 10:00N 74°18' W 082°18'2 1.6 110 / 191008.2 -1.8-3.0
2018-Sep-17 09:00N 74°18' W 082°24'2 1.6 110 / 191007.8 -1.9-2.8
2018-Sep-17 08:00N 74°18' W 082°30'2 1.6 110 / 111008.0 -2.0-2.6
2018-Sep-17 07:00N 74°18' W 082°36'6 6.2 130 / 131007.7 -2.2-2.4
2018-Sep-17 06:00N 74°12' W 082°42'0 0.0 140 / 161007.3 -1.6-3.3
2018-Sep-17 05:00N 74°12' W 082°42'2 1.6 230 / 11007.5 -2.2-2.4
2018-Sep-17 04:00N 74°12' W 082°48'0 0.0 130 / 41007.3 -2.2-2.4
2018-Sep-17 03:00N 74°12' W 082°48'1212.1 100 / 151007.0 -2.4-2.6
2018-Sep-17 02:00N 74°24' W 082°54'1212.0 140 / 131007.1 -2.3-2.5
2018-Sep-17 01:00N 74°12' W 082°54'1818.1 200 / 171007.4 -2.5-2.8
2018-Sep-17 00:00N 73°54' W 082°48'2 1.7 210 / 161007.5 -2.4-2.7
2018-Sep-16 23:00N 73°54' W 082°54'1010.0 230 / 51007.3 -2.1-2.3
2018-Sep-16 22:00N 73°54' W 083°30'1010.0 230 / 81006.7 -2.0-2.6
2018-Sep-16 21:00N 73°54' W 084°06'1010.0 180 / 101006.2 -2.2-2.4
2018-Sep-16 20:00N 73°54' W 084°42'2311.6 130 / 31007.0 -3.1-3.3
2018-Sep-16 18:00N 74°06' W 085°54'10 9.9 160 / 61006.6 -2.9-3.5
2018-Sep-16 17:00N 74°06' W 086°30'1010.2 240 / 71006.7 -2.9-3.1
2018-Sep-16 16:00N 74°12' W 087°00'1211.5 190 / 71006.6 -2.9-3.1
2018-Sep-16 15:00N 74°06' W 087°36'1010.2 200 / 131007.0 -2.8-3.2
2018-Sep-16 14:00N 74°00' W 088°06'1010.2 220 / 101007.3 -2.1-2.6
2018-Sep-16 13:00N 73°54' W 088°36'8 7.8 210 / 151007.6 -3.7-3.9
2018-Sep-16 12:00N 73°48' W 088°54'9 9.0 200 / 151008.2 -3.6-3.9
2018-Sep-16 11:00N 73°42' W 089°18'1212.5 200 / 141008.7 -3.9-4.9
2018-Sep-16 10:00N 73°30' W 089°30'0 0.0 180 / 171009.1 -3.5-4.6
2018-Sep-16 09:00N 73°30' W 089°30'0 0.0 230 / 81009.6 -3.3-4.3
2018-Sep-16 08:00N 73°30' W 089°30'0 0.0 240 / 31009.9 -3.4-4.8
2018-Sep-16 07:00N 73°30' W 089°30'0 0.0 220 / 11010.3 -3.3-4.8
2018-Sep-16 06:00N 73°30' W 089°30'2 1.7 250 / 11010.8 -3.4-4.2
2018-Sep-16 05:00N 73°30' W 089°36'0 0.0 240 / 61011.1 -3.4-4.1
2018-Sep-16 04:00N 73°30' W 089°36'0 0.0 260 / 11011.4 -3.1-4.4
2018-Sep-16 03:00N 73°30' W 089°36'0 0.0 1011.8 -2.8-3.0
2018-Sep-16 02:00N 73°30' W 089°36'0 0.0 1012.2 -2.4-2.6
2018-Sep-16 01:00N 73°30' W 089°36'0 0.0 240 / 11012.9 -2.3-2.9
2018-Sep-15 23:00N 73°30' W 089°36'0 0.0 260 / 81013.4 -2.4-3.1
2018-Sep-15 22:00N 73°30' W 089°36'6 6.2 280 / 11013.6 -2.0-3.2
2018-Sep-15 21:00N 73°24' W 089°30'1212.0 210 / 211014.1 -2.6-2.8
2018-Sep-15 20:00N 73°12' W 089°30'1918.7 230 / 191015.1 -2.4-3.1
2018-Sep-15 19:00N 72°54' W 089°48'8 8.0 240 / 191015.5 -2.2-2.7
2018-Sep-15 18:00N 72°48' W 090°06'1212.1 240 / 211015.8 -1.5-2.1
2018-Sep-15 17:00N 72°36' W 090°12'1818.1 230 / 161016.3 -1.4-3.7
2018-Sep-15 16:00N 72°18' W 090°18'1312.5 250 / 81016.5 -0.7-6.6
2018-Sep-15 15:00N 72°06' W 090°30'1212.1 270 / 81016.7 -0.8-6.8
2018-Sep-15 14:00N 71°54' W 090°36'1212.1 270 / 101016.6 -0.6-6.3
2018-Sep-15 13:00N 71°42' W 090°42'2412.2 280 / 81016.5 -0.4-4.8
2018-Sep-15 11:00N 71°18' W 090°54'1212.0 300 / 51016.0 -0.2-4.1
2018-Sep-15 10:00N 71°06' W 090°54'1818.0 280 / 21015.8 -0.6-3.1
2018-Sep-15 09:00N 70°48' W 090°54'1212.2 300 / 51015.4 -1.1-1.3
2018-Sep-15 08:00N 70°36' W 091°00'1212.0 260 / 61015.3 -1.1-1.3
2018-Sep-15 07:00N 70°24' W 091°00'1212.0 260 / 81015.1 -0.2-3.9
2018-Sep-15 06:00N 70°12' W 091°00'1818.1 230 / 81014.8 -0.5-2.7
2018-Sep-15 05:00N 69°54' W 090°54'9 8.6 160 / 81014.6 -0.7-2.2
2018-Sep-15 04:00N 69°48' W 090°36'1010.2 180 / 111014.5 -0.9-2.2
2018-Sep-15 03:00N 69°42' W 090°12'1413.5 170 / 171014.3 -0.8-1.7
2018-Sep-15 02:00N 69°30' W 089°54'1312.7 200 / 131014.4 -1.2-1.4
2018-Sep-15 01:00N 69°18' W 090°06'1413.6 280 / 71014.0 -0.5-1.9
2018-Sep-15 00:00N 69°06' W 090°24'1212.2 200 / 131013.9 -0.3-2.4
2018-Sep-14 23:00N 68°54' W 090°18'1312.8 190 / 151013.8 -0.2-2.4
2018-Sep-14 22:00N 68°42' W 090°06'7 7.4 200 / 161013.7 -0.2-2.7
2018-Sep-14 21:00N 68°36' W 089°54'6 6.0 170 / 111013.8 1.2-3.8
2018-Sep-14 20:00N 68°30' W 089°54'0 0.0 160 / 111013.9 0.9-3.4
2018-Sep-14 19:00N 68°30' W 089°54'0 0.0 170 / 141013.7 0.8-3.4
2018-Sep-14 18:00N 68°30' W 089°54'0 0.0 160 / 141013.5 0.9-3.4
2018-Sep-14 16:00N 68°30' W 089°54'0 0.0 160 / 171013.0 0.5-2.5
2018-Sep-14 15:00N 68°30' W 089°54'0 0.0 150 / 151013.1 -0.7-2.0
2018-Sep-14 14:00N 68°30' W 089°54'0 0.0 160 / 171012.8 -1.4-1.6
2018-Sep-14 13:00N 68°30' W 089°54'0 0.0 170 / 181012.6 -1.0-2.3
2018-Sep-14 12:00N 68°30' W 089°54'1312.8 160 / 151012.4 -0.7-2.2
2018-Sep-14 11:00N 68°42' W 090°06'6 6.4 140 / 191011.7 -0.6-1.9
2018-Sep-14 10:00N 68°48' W 090°12'1212.2 150 / 211011.5 -1.0-2.7
2018-Sep-14 09:00N 68°36' W 090°06'6 6.0 160 / 201011.6 -0.7-2.7
2018-Sep-14 08:00N 68°42' W 090°06'0 0.0 170 / 221011.5 -0.6-1.8
2018-Sep-14 07:00N 68°42' W 090°06'0 0.0 170 / 211011.5 -1.0-1.9
2018-Sep-14 04:00N 68°42' W 090°06'0 0.0 150 / 201010.8 -1.0-1.5
2018-Sep-14 03:00N 68°42' W 090°06'0 0.0 180 / 201010.6 -1.0-1.6
2018-Sep-14 02:00N 68°42' W 090°06'6 6.4 180 / 231010.4 -1.0-2.1
2018-Sep-14 01:00N 68°48' W 090°12'6 6.4 160 / 211009.6 -1.1-2.0
2018-Sep-14 00:00N 68°42' W 090°06'0 0.0 170 / 231009.6 -0.9-2.0
2018-Sep-13 22:00N 68°42' W 090°06'0 0.0 200 / 291008.9 0.3-0.9
2018-Sep-13 21:00N 68°42' W 090°06'6 6.4 200 / 291008.2 0.2-1.1
2018-Sep-13 20:00N 68°48' W 090°12'6 6.4 190 / 211007.2 0.3-1.3
2018-Sep-13 19:00N 68°54' W 090°18'1818.1 170 / 241005.5 0.7-0.4
2018-Sep-13 18:00N 69°12' W 090°24'9 8.8 150 / 161005.5 0.5-1.1
2018-Sep-13 17:00N 69°18' W 090°06'1212.2 140 / 211004.7 0.7-0.2
2018-Sep-13 16:00N 69°30' W 090°00'1312.7 110 / 231004.1 0.6 0.2
2018-Sep-13 15:00N 69°42' W 090°12'1010.2 120 / 151003.4 0.6 0.2
2018-Sep-13 14:00N 69°48' W 090°36'9 8.6 130 / 151002.6 0.6-0.3
2018-Sep-13 13:00N 69°54' W 090°54'1818.1 100 / 181002.2 -0.3-0.5
2018-Sep-13 12:00N 70°12' W 091°00'1212.2 100 / 191001.9 -0.4-0.8
2018-Sep-13 11:00N 70°24' W 090°54'3015.0 100 / 171001.4 -0.4-0.6
2018-Sep-13 09:00N 70°54' W 090°54'7 7.2 050 / 231001.0 -0.6-0.9
2018-Sep-13 08:00N 71°00' W 091°06'1414.3 040 / 211001.0 -0.9-1.0
2018-Sep-13 07:00N 71°12' W 091°30'10 9.8 030 / 201001.2 -1.0-1.2
2018-Sep-13 06:00N 71°18' W 091°54'1515.3 040 / 161001.2 -1.2-1.4
2018-Sep-13 05:00N 71°30' W 092°24'1111.2 040 / 151001.3 -1.2-1.4
2018-Sep-13 04:00N 71°36' W 092°54'1515.3 060 / 91001.3 -1.0-1.2
2018-Sep-13 03:00N 71°48' W 093°24'1111.1 020 / 161001.3 -0.6-0.8
2018-Sep-13 02:00N 71°54' W 093°54'1312.7 340 / 181001.4 -0.8-0.9
2018-Sep-13 01:00N 72°00' W 094°30'10 9.6 010 / 131001.6 -0.3-0.5
2018-Sep-13 00:00N 71°54' W 094°54'9 9.3 010 / 121001.5 -0.6-0.8
2018-Sep-12 23:00N 71°54' W 095°24'2 1.9 050 / 91001.9 -0.4-0.7
2018-Sep-12 22:00N 71°54' W 095°18'0 0.0 100 / 11001.7 -0.2-0.4
2018-Sep-12 21:00N 71°54' W 095°18'7 7.5 080 / 81001.4 1.5 1.3
2018-Sep-12 20:00N 71°54' W 094°54'7 7.1 060 / 101001.3 -0.0-0.1
2018-Sep-12 19:00N 72°00' W 094°42'8 8.2 070 / 131000.9 0.2-0.0
2018-Sep-12 18:00N 71°54' W 094°24'6 5.6 020 / 101000.4 0.1-0.0
2018-Sep-12 17:00N 71°54' W 094°06'4 3.7 090 / 81000.6 -0.0-0.2
2018-Sep-12 16:00N 71°54' W 093°54'10 9.6 010 / 151001.1 -0.2-0.3
2018-Sep-12 15:00N 72°00' W 093°30'1111.0 020 / 171001.5 0.1-0.1
2018-Sep-12 14:00N 72°06' W 093°00'9 9.5 030 / 151002.2 0.5 0.3
2018-Sep-12 13:00N 72°12' W 092°36'1110.9 020 / 181002.8 0.2 0.1
2018-Sep-12 12:00N 72°18' W 092°06'9 9.1 020 / 171003.4 0.1-0.1
2018-Sep-12 11:00N 72°18' W 091°36'1110.9 040 / 191004.2 1.0 0.1
2018-Sep-12 10:00N 72°24' W 091°06'1110.9 040 / 161004.8 1.1-1.0
2018-Sep-12 09:00N 72°30' W 090°36'1110.8 040 / 171005.4 1.1-1.6
2018-Sep-12 08:00N 72°36' W 090°06'7 7.0 030 / 151005.8 0.3-1.1
2018-Sep-12 07:00N 72°42' W 089°54'1312.5 030 / 171006.6 0.2-1.4
2018-Sep-12 06:00N 72°54' W 089°42'7 7.0 040 / 201007.1 0.5-2.1
2018-Sep-12 05:00N 73°00' W 089°30'1212.5 040 / 201007.6 0.5-2.8
2018-Sep-12 04:00N 73°12' W 089°18'2010.0 040 / 161008.0 0.6-2.8
2018-Sep-12 02:00N 73°30' W 088°48'1514.7 090 / 101009.0 0.2-2.9
2018-Sep-12 01:00N 73°42' W 088°18'1010.3 070 / 141009.1 -0.5-2.1
2018-Sep-12 00:00N 73°48' W 087°48'1211.7 090 / 101009.1 0.7-1.0
2018-Sep-11 23:00N 73°54' W 087°12'1010.0 080 / 141009.0 0.1-0.1
2018-Sep-11 22:00N 73°54' W 086°36'1313.1 060 / 91009.1 -0.6-0.7
2018-Sep-11 21:00N 74°00' W 085°54'1211.6 070 / 191008.9 -0.5-0.6
2018-Sep-11 20:00N 74°06' W 085°18'1211.5 090 / 161008.7 -0.5-0.7
2018-Sep-11 19:00N 74°06' W 084°36'1312.9 080 / 151008.5 -0.2-0.3
2018-Sep-11 18:00N 74°12' W 083°54'1313.1 090 / 151008.3 0.3 0.1
2018-Sep-11 17:00N 74°12' W 083°06'8 8.2 050 / 161007.1 0.4 0.1
2018-Sep-11 16:00N 74°12' W 083°36'1111.4 030 / 201007.2 -0.0-0.2
2018-Sep-11 15:00N 74°12' W 084°18'1111.5 030 / 221007.4 0.6 0.1
2018-Sep-11 14:00N 74°18' W 084°54'1514.6 340 / 121007.8 -0.2-0.4
2018-Sep-11 13:00N 74°18' W 085°48'1111.4 340 / 101007.7 -0.4-0.6
2018-Sep-11 12:00N 74°18' W 086°30'1313.0 020 / 141007.4 -0.4-0.6
2018-Sep-11 11:00N 74°18' W 087°18'1111.4 030 / 201006.8 -0.1-0.2
2018-Sep-11 10:00N 74°24' W 087°54'1111.3 020 / 231006.3 0.2 0.1
2018-Sep-11 09:00N 74°24' W 088°36'1312.8 020 / 211006.1 -0.6-0.7
2018-Sep-11 08:00N 74°30' W 089°18'10 9.6 010 / 181006.1 -0.7-0.8
2018-Sep-11 07:00N 74°30' W 089°54'   030 / 81006.1 -1.2-1.4

Dump ship's entire track history